createdAt,value
2018-04-12T00:01:55.325Z,8.40
2018-04-12T00:04:24.650Z,8.30
2018-04-12T00:06:53.142Z,8.30
2018-04-12T00:09:21.705Z,8.30
2018-04-12T00:11:50.286Z,8.20
2018-04-12T00:14:18.763Z,8.20
2018-04-12T00:16:47.158Z,8.20
2018-04-12T00:19:15.626Z,8.10
2018-04-12T00:21:44.056Z,8.10
2018-04-12T00:24:14.126Z,8.20
2018-04-12T00:26:42.709Z,8.20
2018-04-12T00:29:11.190Z,8.20
2018-04-12T00:31:40.810Z,8.30
2018-04-12T00:34:09.240Z,8.30
2018-04-12T00:36:37.861Z,8.40
2018-04-12T00:39:06.545Z,8.40
2018-04-12T00:41:35.842Z,8.50
2018-04-12T00:44:04.652Z,8.50
2018-04-12T00:46:33.212Z,8.50
2018-04-12T00:49:01.796Z,8.60
2018-04-12T00:51:30.220Z,8.60
2018-04-12T00:54:07.491Z,8.60
2018-04-12T00:56:35.900Z,8.70
2018-04-12T00:59:05.806Z,8.70
2018-04-12T01:01:34.438Z,8.70
2018-04-12T01:04:02.831Z,8.70
2018-04-12T01:06:31.407Z,8.80
2018-04-12T01:09:00.579Z,8.80
2018-04-12T01:11:29.366Z,8.80
2018-04-12T01:13:57.884Z,8.80
2018-04-12T01:16:26.457Z,8.80
2018-04-12T01:18:55.137Z,8.90
2018-04-12T01:21:24.286Z,8.90
2018-04-12T01:23:52.739Z,8.80
2018-04-12T01:26:21.167Z,8.90
2018-04-12T01:28:49.590Z,8.90
2018-04-12T01:31:18.152Z,8.90
2018-04-12T01:33:47.376Z,8.90
2018-04-12T01:36:15.940Z,8.90
2018-04-12T01:38:44.519Z,8.90
2018-04-12T01:41:13.925Z,9.00
2018-04-12T01:43:43.137Z,9.00
2018-04-12T01:46:11.533Z,9.00
2018-04-12T01:48:40.187Z,9.00
2018-04-12T01:51:08.764Z,9.00
2018-04-12T01:53:37.905Z,9.00
2018-04-12T01:56:06.444Z,9.00
2018-04-12T01:58:34.947Z,9.00
2018-04-12T02:01:03.510Z,9.10
2018-04-12T02:03:31.921Z,9.10
2018-04-12T02:06:00.569Z,9.10
2018-04-12T02:08:29.875Z,9.10
2018-04-12T02:10:58.457Z,9.00
2018-04-12T02:13:27.143Z,9.10
2018-04-12T02:15:56.301Z,9.10
2018-04-12T02:18:24.832Z,9.10
2018-04-12T02:20:53.406Z,9.10
2018-04-12T02:23:22.702Z,9.10
2018-04-12T02:25:51.291Z,9.10
2018-04-12T02:28:19.785Z,9.10
2018-04-12T02:30:53.412Z,9.10
2018-04-12T02:33:22.055Z,9.10
2018-04-12T02:35:51.481Z,9.10
2018-04-12T02:38:19.955Z,9.10
2018-04-12T02:40:48.345Z,9.10
2018-04-12T02:43:16.798Z,9.10
2018-04-12T02:45:45.174Z,9.10
2018-04-12T02:48:13.621Z,9.00
2018-04-12T02:50:42.117Z,8.80
2018-04-12T02:53:10.510Z,8.80
2018-04-12T02:55:39.685Z,8.60
2018-04-12T02:58:08.858Z,8.60
2018-04-12T03:00:37.253Z,8.60
2018-04-12T03:03:06.442Z,8.60
2018-04-12T03:05:35.649Z,8.50
2018-04-12T03:08:04.076Z,8.50
2018-04-12T03:10:32.581Z,8.50
2018-04-12T03:13:01.026Z,8.50
2018-04-12T03:15:29.453Z,8.50
2018-04-12T03:17:57.929Z,8.50
2018-04-12T03:20:26.329Z,8.40
2018-04-12T03:22:54.767Z,8.40
2018-04-12T03:25:23.174Z,8.40
2018-04-12T03:27:51.584Z,8.30
2018-04-12T03:30:20.020Z,8.30
2018-04-12T03:32:48.422Z,8.30
2018-04-12T03:35:16.832Z,8.30
2018-04-12T03:37:45.973Z,8.20
2018-04-12T03:40:14.426Z,8.20
2018-04-12T03:42:42.817Z,8.20
2018-04-12T03:45:11.192Z,8.20
2018-04-12T03:47:39.620Z,8.20
2018-04-12T03:50:08.005Z,8.10
2018-04-12T03:52:37.202Z,8.10
2018-04-12T03:55:06.419Z,8.00
2018-04-12T03:57:35.565Z,8.00
2018-04-12T04:00:04.101Z,8.00
2018-04-12T04:02:32.558Z,8.00
2018-04-12T04:05:00.981Z,8.00
2018-04-12T04:07:29.425Z,8.00
2018-04-12T04:09:58.740Z,7.90
2018-04-12T04:12:28.322Z,8.00
2018-04-12T04:18:11.462Z,7.90
2018-04-12T04:20:51.541Z,7.90
2018-04-12T04:23:20.730Z,7.90
2018-04-12T04:25:49.878Z,7.90
2018-04-12T04:28:18.280Z,7.90
2018-04-12T04:30:46.862Z,7.90
2018-04-12T04:33:15.382Z,7.80
2018-04-12T04:35:43.839Z,7.80
2018-04-12T04:38:13.010Z,7.80
2018-04-12T04:40:41.503Z,7.80
2018-04-12T04:43:09.902Z,7.80
2018-04-12T04:45:39.075Z,7.80
2018-04-12T04:48:07.590Z,7.70
2018-04-12T04:50:36.093Z,7.80
2018-04-12T04:53:04.762Z,7.70
2018-04-12T04:55:33.347Z,7.80
2018-04-12T04:58:01.823Z,7.70
2018-04-12T05:00:31.224Z,7.70
2018-04-12T05:02:59.725Z,7.70
2018-04-12T05:05:28.187Z,7.70
2018-04-12T05:07:56.768Z,7.60
2018-04-12T05:10:25.996Z,7.70
2018-04-12T05:12:54.449Z,7.60
2018-04-12T05:15:23.032Z,7.70
2018-04-12T05:17:51.447Z,7.60
2018-04-12T05:20:19.849Z,7.70
2018-04-12T05:22:48.341Z,7.70
2018-04-12T05:25:16.958Z,7.70
2018-04-12T05:27:46.371Z,7.60
2018-04-12T05:30:14.864Z,7.60
2018-04-12T05:32:43.421Z,7.60
2018-04-12T05:35:12.561Z,7.60
2018-04-12T05:37:41.017Z,7.60
2018-04-12T05:40:09.497Z,7.60
2018-04-12T05:42:38.066Z,7.60
2018-04-12T05:45:06.643Z,7.60
2018-04-12T05:47:35.231Z,7.60
2018-04-12T05:50:03.701Z,7.50
2018-04-12T05:52:32.855Z,7.50
2018-04-12T05:55:01.796Z,7.50
2018-04-12T05:57:30.383Z,7.40
2018-04-12T05:59:58.830Z,7.40
2018-04-12T06:02:27.446Z,7.40
2018-04-12T06:04:55.844Z,7.40
2018-04-12T06:07:24.273Z,7.40
2018-04-12T06:09:52.792Z,7.40
2018-04-12T06:12:21.164Z,7.40
2018-04-12T06:14:49.534Z,7.50
2018-04-12T06:17:19.166Z,7.40
2018-04-12T06:19:47.645Z,7.40
2018-04-12T06:22:16.071Z,7.40
2018-04-12T06:24:44.541Z,7.30
2018-04-12T06:27:13.790Z,7.30
2018-04-12T06:29:42.286Z,7.30
2018-04-12T06:32:10.731Z,7.30
2018-04-12T06:34:39.162Z,7.40
2018-04-12T06:37:07.712Z,7.40
2018-04-12T06:39:36.571Z,7.40
2018-04-12T06:42:04.998Z,7.40
2018-04-12T06:44:33.431Z,7.40
2018-04-12T06:47:02.043Z,7.40
2018-04-12T06:49:30.468Z,7.40
2018-04-12T06:51:59.231Z,7.40
2018-04-12T06:54:27.618Z,7.50
2018-04-12T06:56:56.023Z,7.50
2018-04-12T06:59:24.455Z,7.50
2018-04-12T07:01:52.853Z,7.50
2018-04-12T07:04:21.325Z,7.50
2018-04-12T07:06:49.889Z,7.50
2018-04-12T07:09:18.265Z,7.50
2018-04-12T07:11:46.723Z,7.50
2018-04-12T07:14:15.331Z,7.60
2018-04-12T07:16:43.752Z,7.60
2018-04-12T07:19:12.159Z,7.60
2018-04-12T07:21:40.768Z,7.70
2018-04-12T07:24:09.163Z,7.70
2018-04-12T07:26:37.554Z,7.70
2018-04-12T07:29:06.110Z,7.80
2018-04-12T07:31:34.529Z,7.70
2018-04-12T07:34:03.274Z,7.80
2018-04-12T07:36:32.427Z,7.90
2018-04-12T07:39:00.799Z,7.90
2018-04-12T07:41:30.028Z,8.00
2018-04-12T07:43:59.259Z,8.10
2018-04-12T07:46:27.661Z,8.10
2018-04-12T07:48:56.206Z,8.10
2018-04-12T07:51:25.511Z,8.10
2018-04-12T07:53:54.825Z,8.20
2018-04-12T07:56:23.214Z,8.20
2018-04-12T07:58:51.870Z,8.20
2018-04-12T08:01:21.170Z,8.20
2018-04-12T08:03:49.622Z,8.20
2018-04-12T08:06:18.029Z,8.20
2018-04-12T08:08:47.176Z,8.30
2018-04-12T08:11:15.813Z,8.30
2018-04-12T08:13:44.205Z,8.30
2018-04-12T08:16:12.649Z,8.30
2018-04-12T08:18:41.885Z,8.30
2018-04-12T08:21:10.376Z,8.20
2018-04-12T08:23:38.846Z,8.30
2018-04-12T08:26:07.258Z,8.30
2018-04-12T08:28:35.684Z,8.30
2018-04-12T08:31:05.094Z,8.40
2018-04-12T08:33:34.410Z,8.40
2018-04-12T08:36:03.180Z,8.40
2018-04-12T08:38:31.972Z,8.50
2018-04-12T08:41:01.305Z,8.60
2018-04-12T08:43:30.871Z,8.60
2018-04-12T08:46:00.177Z,8.70
2018-04-12T08:48:28.675Z,8.70
2018-04-12T08:50:57.339Z,8.70
2018-04-12T08:53:26.122Z,8.80
2018-04-12T08:55:55.320Z,8.90
2018-04-12T08:58:23.717Z,8.90
2018-04-12T09:00:52.153Z,9.00
2018-04-12T09:03:20.928Z,9.10
2018-04-12T09:05:49.297Z,9.20
2018-04-12T09:08:17.750Z,9.30
2018-04-12T09:10:46.315Z,9.30
2018-04-12T09:13:15.631Z,9.30
2018-04-12T09:15:44.039Z,9.30
2018-04-12T09:18:12.491Z,9.40
2018-04-12T09:20:40.918Z,9.50
2018-04-12T09:23:09.338Z,9.50
2018-04-12T09:25:37.813Z,9.60
2018-04-12T09:28:06.947Z,9.70
2018-04-12T09:30:35.329Z,9.70
2018-04-12T09:33:03.811Z,9.80
2018-04-12T09:35:32.201Z,9.80
2018-04-12T09:38:00.596Z,9.90
2018-04-12T09:40:29.832Z,10.10
2018-04-12T09:42:58.267Z,10.10
2018-04-12T09:45:26.691Z,10.20
2018-04-12T09:47:55.144Z,10.10
2018-04-12T09:50:24.334Z,10.20
2018-04-12T09:52:53.545Z,10.30
2018-04-12T09:55:22.739Z,10.50
2018-04-12T09:57:51.904Z,10.50
2018-04-12T10:00:28.150Z,10.50
2018-04-12T10:02:56.617Z,10.60
2018-04-12T10:05:30.058Z,10.60
2018-04-12T10:08:05.245Z,10.70
2018-04-12T10:10:33.686Z,10.70
2018-04-12T10:13:02.097Z,10.80
2018-04-12T10:15:30.566Z,10.80
2018-04-12T10:17:59.149Z,10.60
2018-04-12T10:20:28.345Z,10.60
2018-04-12T10:22:56.850Z,10.60
2018-04-12T10:25:25.241Z,10.60
2018-04-12T10:27:53.709Z,10.60
2018-04-12T10:30:22.171Z,10.60
2018-04-12T10:32:50.593Z,10.70
2018-04-12T10:35:18.958Z,10.70
2018-04-12T10:37:47.381Z,10.80
2018-04-12T10:40:15.801Z,10.80
2018-04-12T10:42:44.385Z,10.80
2018-04-12T10:45:13.075Z,10.90
2018-04-12T10:47:41.639Z,10.90
2018-04-12T10:50:10.016Z,10.90
2018-04-12T10:52:38.599Z,11.00
2018-04-12T10:55:07.904Z,11.10
2018-04-12T10:57:36.378Z,11.10
2018-04-12T11:00:05.552Z,11.20
2018-04-12T11:02:33.967Z,11.20
2018-04-12T11:05:02.454Z,11.10
2018-04-12T11:07:31.019Z,11.20
2018-04-12T11:09:59.394Z,11.20
2018-04-12T11:12:28.583Z,11.20
2018-04-12T11:14:57.784Z,11.20
2018-04-12T11:17:32.315Z,11.20
2018-04-12T11:20:01.629Z,11.20
2018-04-12T11:22:31.015Z,11.30
2018-04-12T11:25:00.233Z,11.40
2018-04-12T11:27:28.662Z,11.40
2018-04-12T11:29:58.329Z,11.60
2018-04-12T11:32:26.814Z,11.50
2018-04-12T11:34:55.207Z,11.60
2018-04-12T11:37:23.648Z,11.70
2018-04-12T11:39:52.222Z,11.70
2018-04-12T11:42:20.805Z,11.70
2018-04-12T11:44:49.953Z,11.80
2018-04-12T11:47:18.587Z,11.80
2018-04-12T11:49:47.136Z,11.90
2018-04-12T11:52:16.470Z,11.90
2018-04-12T11:54:45.873Z,11.90
2018-04-12T11:57:14.340Z,11.90
2018-04-12T11:59:43.490Z,12.00
2018-04-12T12:02:12.131Z,12.00
2018-04-12T12:04:41.628Z,12.10
2018-04-12T12:07:10.854Z,12.30
2018-04-12T12:09:39.253Z,12.30
2018-04-12T12:12:07.896Z,12.50
2018-04-12T12:14:37.089Z,12.90
2018-04-12T12:17:06.310Z,13.20
2018-04-12T12:19:34.681Z,13.10
2018-04-12T12:22:03.131Z,13.40
2018-04-12T12:24:31.523Z,13.60
2018-04-12T12:27:00.832Z,13.90
2018-04-12T12:29:29.280Z,13.90
2018-04-12T12:31:58.613Z,14.30
2018-04-12T12:34:27.825Z,14.40
2018-04-12T12:36:56.249Z,14.40
2018-04-12T12:39:24.768Z,14.60
2018-04-12T12:41:53.351Z,14.80
2018-04-12T12:44:21.933Z,14.90
2018-04-12T12:46:51.084Z,15.20
2018-04-12T12:49:19.521Z,15.10
2018-04-12T12:51:47.953Z,15.30
2018-04-12T12:54:16.347Z,15.40
2018-04-12T12:56:44.958Z,15.50
2018-04-12T12:59:13.401Z,15.50
2018-04-12T13:01:41.841Z,15.60
2018-04-12T13:04:10.396Z,15.70
2018-04-12T13:06:39.245Z,15.70
2018-04-12T13:09:07.766Z,15.60
2018-04-12T13:11:36.224Z,15.50
2018-04-12T13:14:05.059Z,15.50
2018-04-12T13:16:33.437Z,15.60
2018-04-12T13:19:01.997Z,15.70
2018-04-12T13:21:33.930Z,16.10
2018-04-12T13:24:02.331Z,16.10
2018-04-12T13:26:31.967Z,16.50
2018-04-12T13:29:00.434Z,16.50
2018-04-12T13:31:28.853Z,16.60
2018-04-12T13:33:57.283Z,16.70
2018-04-12T13:36:26.422Z,16.80
2018-04-12T13:38:55.229Z,16.80
2018-04-12T13:41:23.615Z,16.90
2018-04-12T13:43:52.070Z,16.90
2018-04-12T13:46:20.498Z,16.90
2018-04-12T13:48:49.665Z,17.20
2018-04-12T13:51:18.166Z,17.20
2018-04-12T13:53:46.557Z,17.40
2018-04-12T13:56:15.763Z,17.40
2018-04-12T13:58:44.343Z,17.40
2018-04-12T14:01:13.639Z,17.40
2018-04-12T14:03:42.943Z,17.50
2018-04-12T14:06:11.341Z,17.50
2018-04-12T14:08:39.742Z,17.60
2018-04-12T14:11:08.151Z,17.60
2018-04-12T14:13:36.658Z,17.70
2018-04-12T14:16:06.063Z,17.90
2018-04-12T14:18:34.483Z,17.90
2018-04-12T14:21:03.027Z,18.00
2018-04-12T14:23:31.461Z,18.10
2018-04-12T14:25:59.876Z,18.20
2018-04-12T14:28:29.185Z,18.20
2018-04-12T14:30:58.321Z,18.20
2018-04-12T14:33:27.123Z,18.20
2018-04-12T14:35:56.302Z,18.20
2018-04-12T14:38:24.689Z,18.20
2018-04-12T14:40:53.127Z,18.20
2018-04-12T14:43:22.424Z,18.10
2018-04-12T14:45:51.999Z,18.00
2018-04-12T14:48:20.401Z,18.00
2018-04-12T14:50:49.807Z,18.10
2018-04-12T14:53:19.108Z,18.20
2018-04-12T14:55:48.409Z,18.20
2018-04-12T14:58:18.269Z,18.20
2018-04-12T15:00:47.086Z,18.20
2018-04-12T15:03:15.510Z,18.20
2018-04-12T15:05:44.629Z,18.20
2018-04-12T15:08:13.084Z,18.20
2018-04-12T15:10:41.546Z,18.20
2018-04-12T15:13:10.760Z,18.40
2018-04-12T15:15:39.330Z,18.40
2018-04-12T15:18:07.778Z,18.50
2018-04-12T15:20:36.205Z,18.50
2018-04-12T15:23:05.488Z,18.60
2018-04-12T15:25:33.892Z,18.60
2018-04-12T15:28:02.553Z,18.60
2018-04-12T15:30:31.850Z,18.60
2018-04-12T15:33:00.355Z,18.60
2018-04-12T15:35:28.756Z,18.60
2018-04-12T15:37:57.167Z,18.60
2018-04-12T15:40:25.968Z,18.60
2018-04-12T15:42:54.315Z,18.70
2018-04-12T15:45:22.693Z,18.70
2018-04-12T15:47:51.097Z,18.60
2018-04-12T15:50:20.273Z,18.60
2018-04-12T15:52:48.721Z,18.50
2018-04-12T15:55:17.112Z,18.60
2018-04-12T15:57:45.538Z,18.50
2018-04-12T16:00:14.774Z,18.50
2018-04-12T16:02:43.144Z,18.40
2018-04-12T16:05:11.501Z,18.40
2018-04-12T16:07:39.976Z,18.40
2018-04-12T16:10:08.420Z,18.40
2018-04-12T16:12:36.797Z,18.40
2018-04-12T16:15:05.959Z,18.40
2018-04-12T16:17:35.153Z,18.40
2018-04-12T16:20:04.309Z,18.40
2018-04-12T16:22:33.546Z,18.40
2018-04-12T16:25:01.934Z,18.40
2018-04-12T16:27:30.311Z,18.40
2018-04-12T16:29:58.725Z,18.40
2018-04-12T16:32:27.127Z,18.40
2018-04-12T16:34:55.551Z,18.40
2018-04-12T16:37:23.902Z,18.30
2018-04-12T16:39:52.317Z,18.30
2018-04-12T16:42:20.745Z,18.20
2018-04-12T16:44:49.206Z,18.20
2018-04-12T16:47:17.614Z,18.20
2018-04-12T16:49:46.033Z,18.20
2018-04-12T16:52:14.480Z,18.20
2018-04-12T16:54:42.840Z,18.20
2018-04-12T16:57:11.224Z,18.20
2018-04-12T16:59:39.689Z,18.20
2018-04-12T17:02:08.052Z,18.20
2018-04-12T17:04:36.450Z,18.20
2018-04-12T17:07:05.128Z,18.20
2018-04-12T17:09:33.587Z,18.20
2018-04-12T17:12:02.545Z,18.20
2018-04-12T17:14:31.930Z,18.20
2018-04-12T17:17:01.359Z,18.20
2018-04-12T17:19:30.178Z,18.20
2018-04-12T17:21:58.617Z,18.20
2018-04-12T17:24:27.793Z,18.10
2018-04-12T17:26:56.338Z,18.10
2018-04-12T17:29:25.720Z,18.00
2018-04-12T17:31:54.239Z,18.00
2018-04-12T17:34:22.626Z,17.90
2018-04-12T17:36:50.977Z,17.90
2018-04-12T17:39:19.439Z,17.80
2018-04-12T17:41:48.036Z,17.80
2018-04-12T17:44:16.505Z,17.70
2018-04-12T17:46:44.943Z,17.70
2018-04-12T17:49:13.362Z,17.60
2018-04-12T17:51:42.009Z,17.60
2018-04-12T17:54:11.177Z,17.40
2018-04-12T17:56:39.569Z,17.40
2018-04-12T17:59:08.217Z,17.40
2018-04-12T18:01:36.600Z,17.30
2018-04-12T18:04:05.232Z,17.30
2018-04-12T18:06:33.872Z,17.20
2018-04-12T18:09:02.305Z,17.20
2018-04-12T18:11:31.533Z,17.00
2018-04-12T18:13:59.918Z,17.00
2018-04-12T18:16:28.339Z,17.00
2018-04-12T18:18:57.834Z,16.90
2018-04-12T18:21:26.316Z,16.80
2018-04-12T18:23:54.661Z,16.80
2018-04-12T18:26:23.071Z,16.80
2018-04-12T18:28:52.309Z,16.70
2018-04-12T18:31:20.874Z,16.70
2018-04-12T18:33:49.374Z,16.60
2018-04-12T18:36:18.653Z,16.50
2018-04-12T18:38:47.052Z,16.50
2018-04-12T18:41:16.347Z,16.40
2018-04-12T18:43:45.521Z,16.40
2018-04-12T18:46:13.892Z,16.40
2018-04-12T18:48:42.268Z,16.30
2018-04-12T18:51:10.790Z,16.30
2018-04-12T18:53:39.939Z,16.10
2018-04-12T18:56:08.365Z,16.10
2018-04-12T18:58:37.207Z,16.10
2018-04-12T19:01:06.120Z,16.00
2018-04-12T19:03:34.513Z,15.90
2018-04-12T19:06:03.906Z,15.80
2018-04-12T19:08:32.294Z,15.80
2018-04-12T19:11:01.442Z,15.70
2018-04-12T19:13:29.977Z,15.70
2018-04-12T19:15:59.111Z,15.60
2018-04-12T19:18:27.527Z,15.60
2018-04-12T19:20:55.920Z,15.60
2018-04-12T19:23:24.300Z,15.50
2018-04-12T19:25:52.880Z,15.50
2018-04-12T19:28:21.256Z,15.40
2018-04-12T19:30:49.765Z,15.40
2018-04-12T19:33:18.216Z,15.30
2018-04-12T19:35:46.674Z,15.30
2018-04-12T19:38:15.027Z,15.30
2018-04-12T19:40:43.559Z,15.20
2018-04-12T19:43:12.143Z,15.20
2018-04-12T19:45:40.619Z,15.10
2018-04-12T19:48:09.006Z,15.10
2018-04-12T19:50:37.478Z,15.10
2018-04-12T19:53:06.671Z,15.00
2018-04-12T19:55:35.158Z,15.00
2018-04-12T19:58:03.637Z,15.00
2018-04-12T20:00:32.221Z,15.00
2018-04-12T20:03:00.591Z,14.90
2018-04-12T20:05:29.187Z,14.90
2018-04-12T20:07:57.652Z,14.80
2018-04-12T20:10:26.143Z,14.80
2018-04-12T20:12:54.623Z,14.80
2018-04-12T20:15:23.788Z,14.80
2018-04-12T20:17:52.321Z,14.70
2018-04-12T20:20:21.502Z,14.70
2018-04-12T20:22:50.084Z,14.60
2018-04-12T20:25:19.591Z,14.60
2018-04-12T20:27:48.186Z,14.60
2018-04-12T20:30:16.553Z,14.50
2018-04-12T20:32:45.030Z,14.50
2018-04-12T20:35:13.617Z,14.40
2018-04-12T20:37:42.783Z,14.30
2018-04-12T20:40:11.391Z,14.30
2018-04-12T20:42:39.893Z,14.30
2018-04-12T20:45:09.089Z,14.20
2018-04-12T20:47:37.489Z,14.10
2018-04-12T20:50:05.906Z,14.10
2018-04-12T20:52:34.412Z,14.10
2018-04-12T20:55:02.800Z,14.00
2018-04-12T20:57:32.098Z,13.90
2018-04-12T21:00:01.305Z,13.90
2018-04-12T21:02:30.480Z,13.90
2018-04-12T21:04:58.992Z,13.90
2018-04-12T21:07:27.344Z,13.90
2018-04-12T21:09:55.929Z,13.80
2018-04-12T21:12:25.148Z,13.80
2018-04-12T21:14:53.510Z,13.80
2018-04-12T21:17:22.000Z,13.80
2018-04-12T21:19:51.292Z,13.70
2018-04-12T21:22:20.587Z,13.70
2018-04-12T21:24:49.705Z,13.70
2018-04-12T21:27:18.122Z,13.70
2018-04-12T21:29:46.480Z,13.70
2018-04-12T21:32:14.836Z,13.70
2018-04-12T21:34:44.004Z,13.80
2018-04-12T21:37:12.481Z,13.80
2018-04-12T21:39:41.079Z,13.80
2018-04-12T21:42:09.470Z,13.80
2018-04-12T21:44:38.669Z,13.90
2018-04-12T21:47:08.158Z,13.90
2018-04-12T21:49:36.542Z,13.90
2018-04-12T21:52:05.834Z,14.00
2018-04-12T21:54:34.197Z,14.00
2018-04-12T21:57:02.694Z,14.00
2018-04-12T21:59:31.073Z,14.00
2018-04-12T22:02:00.203Z,14.00
2018-04-12T22:04:28.752Z,14.00
2018-04-12T22:06:57.145Z,13.90
2018-04-12T22:09:26.535Z,13.90
2018-04-12T22:11:55.317Z,13.90
2018-04-12T22:14:24.523Z,13.80
2018-04-12T22:16:53.702Z,13.80
2018-04-12T22:19:23.607Z,13.70
2018-04-12T22:21:52.209Z,13.70
2018-04-12T22:24:20.556Z,13.70
2018-04-12T22:26:48.968Z,13.70
2018-04-12T22:29:17.444Z,13.70
2018-04-12T22:31:46.031Z,13.70
2018-04-12T22:34:14.615Z,13.70
2018-04-12T22:36:43.898Z,13.70
2018-04-12T22:39:12.263Z,13.70
2018-04-12T22:41:40.875Z,13.70
2018-04-12T22:44:09.463Z,13.70
2018-04-12T22:46:37.940Z,13.70
2018-04-12T22:49:06.311Z,13.80
2018-04-12T22:51:34.743Z,13.80
2018-04-12T22:54:03.295Z,13.80
2018-04-12T22:56:31.685Z,13.80
2018-04-12T22:59:00.241Z,13.80
2018-04-12T23:01:28.827Z,13.90
2018-04-12T23:03:57.343Z,13.90
2018-04-12T23:06:26.185Z,14.00
2018-04-12T23:08:55.391Z,14.10
2018-04-12T23:11:23.870Z,14.10
2018-04-12T23:13:52.381Z,14.10
2018-04-12T23:16:20.969Z,14.20
2018-04-12T23:18:49.374Z,14.30
2018-04-12T23:21:17.822Z,14.40
2018-04-12T23:23:46.260Z,14.40
2018-04-12T23:26:15.426Z,14.40
2018-04-12T23:28:44.057Z,14.30
2018-04-12T23:31:12.469Z,14.40
2018-04-12T23:33:40.918Z,14.40
2018-04-12T23:36:09.417Z,14.30
2018-04-12T23:38:37.982Z,14.40
2018-04-12T23:41:07.127Z,14.30
2018-04-12T23:43:35.657Z,14.30
2018-04-12T23:46:04.806Z,14.30
2018-04-12T23:48:35.993Z,14.30
2018-04-12T23:51:05.157Z,14.20
2018-04-12T23:53:33.560Z,14.20
2018-04-12T23:56:02.767Z,14.20
2018-04-12T23:58:32.179Z,14.20
